Flight Track Log - Related Links

Times and Time Zones

All times are in EDT time to prevent confusion due to time zone crossing. See the N81ER flight status page for this flight to view local times or setup timezone preferences in your user account.


Time Position Orientation Groundspeed Altitude Reporting Facility
EDT Latitude Longitude Course Direction KTS MPH feet Rate Location/Type
Fri 08:27:34 PM 41.0625 -100.7303 257° West 246 283 8,400  Level Denver Center
Fri 08:28:36 PM 41.0428 -100.8439 257° West 286 329 11,600 3,268 Climbing Denver Center
Fri 08:29:37 PM 41.0339 -100.9386 263° West 277 319 15,100 2,541 Climbing Denver Center
Fri 08:36:00 PM 40.9577 -101.6940 263° West 323 372 30,400 2,377 Climbing FlightAware ADS-B
Fri 08:36:31 PM 40.9516 -101.7530 262° West 320 368 31,500 1,967 Climbing FlightAware ADS-B
Fri 08:37:01 PM 40.9456 -101.8110 262° West 318 366 32,400 1,839 Climbing FlightAware ADS-B
Fri 08:37:33 PM 40.9392 -101.8730 262° West 316 364 33,400 1,524 Climbing FlightAware ADS-B
Fri 08:38:04 PM 40.9330 -101.9320 262° West 320 368 34,000 1,082 Climbing FlightAware ADS-B
Fri 08:38:34 PM 40.9266 -101.9910 262° West 328 377 34,500 1,082 Climbing FlightAware ADS-B
Fri 08:39:05 PM 40.9202 -102.0520 262° West 332 382 35,100 1,082 Climbing FlightAware ADS-B
Fri 08:39:35 PM 40.9136 -102.1130 262° West 336 387 35,600 1,000 Climbing FlightAware ADS-B
Fri 08:40:05 PM 40.9070 -102.1750 262° West 339 390 36,100 1,000 Climbing FlightAware ADS-B
Fri 08:40:35 PM 40.9002 -102.2370 262° West 341 392 36,600 984 Climbing FlightAware ADS-B
Fri 08:41:06 PM 40.8933 -102.3010 262° West 344 396 37,100 952 Climbing FlightAware ADS-B
Fri 08:41:38 PM 40.8861 -102.3680 262° West 347 399 37,600 857 Climbing FlightAware ADS-B
Fri 08:42:09 PM 40.8791 -102.4320 262° West 351 404 38,000 689 Climbing FlightAware ADS-B
Fri 08:42:39 PM 40.8720 -102.4960 262° West 355 409 38,300 590 Climbing FlightAware ADS-B
Fri 08:43:10 PM 40.8645 -102.5630 262° West 362 417 38,600 492 Climbing FlightAware ADS-B
Fri 08:43:40 PM 40.8570 -102.6300 262° West 368 423 38,800 393 Climbing FlightAware ADS-B
Fri 08:44:11 PM 40.8492 -102.6990 262° West 373 429 39,000 581 Climbing FlightAware ADS-B
Fri 08:44:42 PM 40.8414 -102.7680 262° West 372 428 39,400 787 Climbing FlightAware ADS-B
Fri 08:45:12 PM 40.8337 -102.8360 262° West 370 426 39,800 590 Climbing FlightAware ADS-B
Fri 08:45:43 PM 40.8260 -102.9040 262° West 374 430 40,000 197 Climbing FlightAware ADS-B
Fri 08:46:13 PM 40.8181 -102.9730 261° West 381 438 40,000  Level FlightAware ADS-B
Fri 08:46:46 PM 40.8093 -103.0480 261° West 388 447 40,000  Level FlightAware ADS-B
Fri 08:47:17 PM 40.8008 -103.1220 261° West 393 452 40,000  Level FlightAware ADS-B
Fri 08:47:50 PM 40.7916 -103.2010 261° West 399 459 40,000  Level FlightAware ADS-B
Fri 08:48:21 PM 40.7829 -103.2750 261° West 402 463 40,000  Level FlightAware ADS-B
Fri 08:48:51 PM 40.7745 -103.3470 261° West 390 449 40,000  Level FlightAware ADS-B
Fri 08:49:21 PM 40.7661 -103.4170 261° West 383 441 40,000 87 Level FlightAware ADS-B
Fri 08:50:00 PM 40.7555 -103.5070 261° West 383 441 40,100 468 Climbing FlightAware ADS-B
Fri 08:50:38 PM 40.7451 -103.5930 261° West 377 434 40,600 771 Climbing FlightAware ADS-B
Fri 08:51:10 PM 40.7364 -103.6650 261° West 374 430 41,000 774 Climbing FlightAware ADS-B
Fri 08:51:40 PM 40.7281 -103.7330 261° West 371 427 41,400 689 Climbing FlightAware ADS-B
Fri 08:52:11 PM 40.7199 -103.8000 261° West 369 425 41,700 563 Climbing FlightAware ADS-B
Fri 08:52:44 PM 40.7108 -103.8740 261° West 369 425 42,000 554 Climbing FlightAware ADS-B
Fri 08:53:16 PM 40.7021 -103.9440 261° West 369 425 42,300 476 Climbing FlightAware ADS-B
Fri 08:53:47 PM 40.6937 -104.0120 261° West 368 423 42,500 492 Climbing FlightAware ADS-B
Fri 08:54:17 PM 40.6855 -104.0790 261° West 367 422 42,800 492 Climbing FlightAware ADS-B
Fri 08:54:48 PM 40.6770 -104.1460 261° West 368 423 43,000 197 Climbing FlightAware ADS-B
Fri 08:55:18 PM 40.6685 -104.2140 261° West 373 429 43,000  Level FlightAware ADS-B
Fri 08:55:49 PM 40.6598 -104.2820 260° West 378 435 43,000  Level FlightAware ADS-B
Fri 08:56:19 PM 40.6510 -104.3510 260° West 382 440 43,000  Level FlightAware ADS-B
Fri 08:56:49 PM 40.6422 -104.4200 260° West 384 442 43,000  Level FlightAware ADS-B
Fri 08:57:19 PM 40.6333 -104.4900 261° West 387 445 43,000  Level FlightAware ADS-B
Fri 08:57:50 PM 40.6242 -104.5600 260° West 387 445 43,000  Level FlightAware ADS-B
Fri 08:58:20 PM 40.6152 -104.6300 260° West 387 445 43,000  Level FlightAware ADS-B
Fri 08:58:52 PM 40.6055 -104.7040 260° West 387 445 43,000  Level FlightAware ADS-B
Fri 08:59:23 PM 40.5958 -104.7780 260° West 387 445 43,000  Level FlightAware ADS-B
Fri 08:59:57 PM 40.5858 -104.8540 260° West 387 445 43,000  Level FlightAware ADS-B
Fri 09:00:27 PM 40.5765 -104.9240 260° West 387 445 43,000  Level FlightAware ADS-B
Fri 09:00:58 PM 40.5670 -104.9960 260° West 387 445 43,000  Level FlightAware ADS-B
Fri 09:01:29 PM 40.5575 -105.0660 260° West 387 445 43,000  Level FlightAware ADS-B
Fri 09:02:00 PM 40.5479 -105.1380 260° West 386 444 43,000  Level FlightAware ADS-B
Fri 09:02:30 PM 40.5385 -105.2080 260° West 386 444 43,000  Level FlightAware ADS-B
Fri 09:03:02 PM 40.5286 -105.2810 260° West 386 444 43,000  Level FlightAware ADS-B
Fri 09:03:32 PM 40.5189 -105.3520 260° West 387 445 43,000  Level FlightAware ADS-B
Fri 09:04:04 PM 40.5091 -105.4240 260° West 387 445 43,000  Level FlightAware ADS-B
Fri 09:04:39 PM 40.4978 -105.5050 260° West 388 447 43,000  Level FlightAware ADS-B
Fri 09:05:27 PM 40.4823 -105.6170 260° West 386 444 43,000  Level FlightAware ADS-B
Fri 09:05:58 PM 40.4724 -105.6880 260° West 384 442 43,000  Level FlightAware ADS-B
Fri 09:06:28 PM 40.4640 -105.7480 260° West 382 440 43,000  Level FlightAware ADS-B
Fri 09:06:35 PM 40.4608 -105.7710 260° West 384 442 43,000  Level FlightAware ADS-B
Fri 09:07:07 PM 40.4504 -105.8450 260° West 382 440 43,000  Level FlightAware ADS-B
Fri 09:07:40 PM 40.4400 -105.9180 259° West 383 441 43,000  Level FlightAware ADS-B
Fri 09:08:20 PM 40.4269 -106.0110 260° West 382 440 43,000  Level FlightAware ADS-B
Fri 09:09:18 PM 40.4090 -106.1370 259° West 379 436 43,000  Level FlightAware ADS-B
Fri 09:09:25 PM 40.4058 -106.1570 258° West 382 440 43,000  Level FlightAware ADS-B
Fri 09:09:59 PM 40.3949 -106.2330 259° West 380 437 43,000  Level FlightAware ADS-B
Fri 09:10:35 PM 40.3829 -106.3160 259° West 380 437 43,000  Level FlightAware ADS-B
Fri 09:11:23 PM 40.3670 -106.4220 259° West 382 440 43,000  Level FlightAware ADS-B
Fri 09:11:35 PM 40.3629 -106.4520 260° West 383 441 43,000  Level FlightAware ADS-B
Fri 09:12:20 PM 40.3478 -106.5550 259° West 383 441 43,000  Level FlightAware ADS-B
Fri 09:13:01 PM 40.3342 -106.6470 259° West 382 440 43,000  Level FlightAware ADS-B
Fri 09:13:54 PM 40.3164 -106.7660 259° West 380 437 43,000  Level FlightAware ADS-B
Fri 09:14:29 PM 40.3046 -106.8450 259° West 381 438 43,000  Level FlightAware ADS-B
Fri 09:15:05 PM 40.2923 -106.9260 259° West 381 438 43,000  Level FlightAware ADS-B
Fri 09:15:41 PM 40.2800 -107.0080 259° West 381 438 43,000  Level FlightAware ADS-B
Fri 09:16:11 PM 40.2695 -107.0770 259° West 381 438 43,000  Level FlightAware ADS-B
Fri 09:16:47 PM 40.2573 -107.1570 259° West 379 436 43,000  Level FlightAware ADS-B
Fri 09:17:20 PM 40.2457 -107.2320 259° West 379 436 43,000  Level FlightAware ADS-B
Fri 09:17:58 PM 40.2340 -107.3070 258° West 381 438 43,000  Level FlightAware ADS-B
Fri 09:18:28 PM 40.2222 -107.3840 259° West 379 436 43,000  Level FlightAware ADS-B
Fri 09:19:18 PM 40.2050 -107.4910 258° West 379 436 43,000  Level FlightAware ADS-B
Fri 09:19:24 PM 40.2024 -107.5110 260° West 379 436 43,000  Level FlightAware ADS-B
Fri 09:20:03 PM 40.1900 -107.5870 258° West 379 436 43,000  Level FlightAware ADS-B
Fri 09:20:43 PM 40.1750 -107.6810 258° West 378 435 43,000  Level FlightAware ADS-B
Fri 09:21:23 PM 40.1620 -107.7660 259° West 379 436 43,000  Level FlightAware ADS-B
Fri 09:22:03 PM 40.1480 -107.8540 258° West 380 437 43,000  Level FlightAware ADS-B
Fri 09:22:53 PM 40.1300 -107.9670 258° West 378 435 43,000  Level FlightAware ADS-B
Fri 09:23:28 PM 40.1180 -108.0390 258° West 378 435 43,000  Level FlightAware ADS-B
Fri 09:24:08 PM 40.1030 -108.1320 258° West 377 434 43,000  Level FlightAware ADS-B
Fri 09:25:13 PM 40.0800 -108.2720 258° West 377 434 43,000  Level FlightAware ADS-B
Fri 09:25:53 PM 40.0640 -108.3700 258° West 378 435 43,000  Level FlightAware ADS-B
Fri 09:26:33 PM 40.0510 -108.4520 258° West 379 436 43,000  Level FlightAware ADS-B
Fri 09:27:33 PM 40.0270 -108.5940 258° West 380 437 43,000  Level FlightAware ADS-B
Fri 09:28:28 PM 40.0070 -108.7130 258° West 381 438 43,000  Level FlightAware ADS-B
Fri 09:29:08 PM 39.9920 -108.8020 258° West 382 440 43,000  Level FlightAware ADS-B
Fri 09:29:48 PM 39.9770 -108.8930 258° West 384 442 43,000  Level FlightAware ADS-B
Fri 09:30:33 PM 39.9600 -108.9940 258° West 385 443 43,000  Level FlightAware ADS-B
Fri 09:31:13 PM 39.9450 -109.0820 257° West 386 444 43,000  Level FlightAware ADS-B
Fri 09:31:58 PM 39.9270 -109.1840 257° West 384 442 43,000  Level FlightAware ADS-B
Fri 09:32:38 PM 39.9110 -109.2770 257° West 381 438 43,000  Level FlightAware ADS-B
Fri 09:33:33 PM 39.8910 -109.3950 258° West 377 434 43,000  Level FlightAware ADS-B
Fri 09:34:13 PM 39.8740 -109.4910 257° West 376 433 43,000  Level FlightAware ADS-B
Fri 09:34:58 PM 39.8570 -109.5850 257° West 375 432 43,000  Level FlightAware ADS-B
Fri 09:35:38 PM 39.8430 -109.6680 258° West 374 430 43,000  Level FlightAware ADS-B
Fri 09:36:23 PM 39.8250 -109.7680 257° West 373 429 43,000  Level FlightAware ADS-B
Fri 09:37:03 PM 39.8090 -109.8590 257° West 374 430 43,000  Level FlightAware ADS-B
Fri 09:37:58 PM 39.7890 -109.9630 256° West 375 432 43,000  Level FlightAware ADS-B
Fri 09:38:38 PM 39.7730 -110.0580 258° West 378 435 43,000  Level FlightAware ADS-B
Fri 09:39:38 PM 39.7490 -110.1880 257° West 378 435 43,000  Level FlightAware ADS-B
Fri 09:40:13 PM 39.7340 -110.2730 257° West 375 432 43,000  Level FlightAware ADS-B
Fri 09:40:58 PM 39.7170 -110.3610 256° West 375 432 43,000  Level FlightAware ADS-B
Fri 09:41:38 PM 39.7030 -110.4350 256° West 375 432 43,000  Level FlightAware ADS-B
Fri 09:42:18 PM 39.6890 -110.5100 256° West 375 432 43,000  Level FlightAware ADS-B
Fri 09:43:08 PM 39.6710 -110.6030 256° West 375 432 43,000  Level FlightAware ADS-B
Fri 09:43:48 PM 39.6560 -110.6770 255° West 375 432 43,000  Level FlightAware ADS-B
Fri 09:44:28 PM 39.6420 -110.7510 256° West 375 432 43,000  Level FlightAware ADS-B
Fri 09:45:08 PM 39.6280 -110.8260 256° West 375 432 43,000  Level FlightAware ADS-B
Fri 09:45:58 PM 39.6100 -110.9180 256° West 375 432 43,000  Level FlightAware ADS-B
Fri 09:46:38 PM 39.5960 -110.9930 256° West 375 432 43,000  Level FlightAware ADS-B
Fri 09:47:18 PM 39.5810 -111.0670 255° West 375 432 43,000  Level FlightAware ADS-B
Fri 09:47:58 PM 39.5670 -111.1410 256° West 375 432 43,000  Level FlightAware ADS-B
Fri 09:48:38 PM 39.5530 -111.2150 256° West 375 432 43,000  Level FlightAware ADS-B
Fri 09:49:28 PM 39.5350 -111.3080 256° West 375 432 43,000  Level FlightAware ADS-B
Fri 09:50:08 PM 39.5210 -111.3820 256° West 375 432 43,000  Level FlightAware ADS-B
Fri 09:51:01 PM 39.4675 -111.6844 256° West 381 438 43,000  Level Salt Lake Center
Fri 09:52:02 PM 39.4417 -111.8167 256° West 380 437 43,000  Level Salt Lake Center
Fri 09:53:04 PM 39.4169 -111.9464 256° West 373 429 43,000  Level Salt Lake Center
Fri 09:54:05 PM 39.3850 -112.1039 255° West 377 434 43,000  Level Salt Lake Center
Fri 09:55:07 PM 39.3583 -112.2322 255° West 374 430 43,000  Level Salt Lake Center
Fri 09:56:08 PM 39.3325 -112.3611 256° West 371 427 43,000  Level Salt Lake Center
Fri 09:57:10 PM 39.3061 -112.4894 255° West 370 426 43,000  Level Salt Lake Center
Fri 09:58:11 PM 39.2794 -112.6164 255° West 368 423 43,000  Level Salt Lake Center
Fri 09:59:13 PM 39.2469 -112.7575 253° West 366 421 43,000  Level Salt Lake Center
Fri 10:00:14 PM 39.2203 -112.8803 254° West 361 415 43,000  Level Salt Lake Center
Fri 10:01:16 PM 39.1911 -113.0067 253° West 367 422 43,000  Level Salt Lake Center
Fri 10:02:17 PM 39.1636 -113.1303 254° West 363 418 43,000  Level Salt Lake Center
Fri 10:03:19 PM 39.1353 -113.2550 254° West 364 419 43,000  Level Salt Lake Center
Fri 10:04:21 PM 39.1089 -113.3819 255° West 367 422 43,000  Level Salt Lake Center
Fri 10:05:22 PM 39.0858 -113.5078 257° West 365 420 43,000  Level Salt Lake Center
Fri 10:06:24 PM 39.0572 -113.6639 257° West 373 429 43,000  Level Salt Lake Center
Fri 10:07:25 PM 39.0336 -113.7917 257° West 371 427 43,000  Level Salt Lake Center
Fri 10:08:27 PM 39.0089 -113.9222 256° West 376 433 43,000  Level Salt Lake Center
Fri 10:09:28 PM 38.9842 -114.0561 257° West 385 443 43,000  Level Salt Lake Center
Fri 10:10:30 PM 38.9586 -114.1911 256° West 389 448 43,000  Level Salt Lake Center
Fri 10:11:31 PM 38.9336 -114.3250 257° West 388 447 43,000  Level Salt Lake Center
Fri 10:12:33 PM 38.9075 -114.4564 256° West 383 441 43,000  Level Salt Lake Center
Fri 10:13:34 PM 38.8856 -114.5775 257° West 355 409 43,000  Level Salt Lake Center
Fri 10:14:36 PM 38.8567 -114.7275 256° West 361 415 43,000  Level Salt Lake Center
Fri 10:15:37 PM 38.8314 -114.8558 256° West 371 427 43,000  Level Salt Lake Center
Fri 10:16:39 PM 38.8058 -114.9836 256° West 372 428 43,000  Level Salt Lake Center
Fri 10:17:40 PM 38.7781 -115.1169 255° West 383 441 43,000  Level Salt Lake Center
Fri 10:18:42 PM 38.7500 -115.2506 255° West 390 449 43,000  Level Salt Lake Center
Fri 10:19:43 PM 38.7258 -115.3778 256° West 382 440 43,000  Level Salt Lake Center
Fri 10:20:45 PM 38.7000 -115.5094 256° West 380 437 43,000  Level Salt Lake Center
Fri 10:21:46 PM 38.6672 -115.6667 255° West 382 440 43,000  Level Salt Lake Center
Fri 10:22:48 PM 38.6403 -115.8003 256° West 387 445 43,000  Level Salt Lake Center
Fri 10:23:49 PM 38.6133 -115.9333 256° West 387 445 43,000  Level Salt Lake Center
Fri 10:24:51 PM 38.5858 -116.0669 255° West 389 448 43,000  Level Salt Lake Center
Fri 10:25:52 PM 38.5575 -116.2011 255° West 391 450 43,000  Level Salt Lake Center
Fri 10:26:09 PM 38.5531 -116.2286 258° West 393 452 43,000  Level Oakland Center
Fri 10:27:10 PM 38.5192 -116.3881 255° West 390 449 43,000  Level Oakland Center
Fri 10:27:55 PM 38.5019 -116.4683 255° West 390 449 43,000  Level Salt Lake Center
Fri 10:28:56 PM 38.4742 -116.5992 255° West 385 443 43,000  Level Salt Lake Center
Fri 10:29:12 PM 38.4639 -116.6519 256° West 385 443 43,000  Level Oakland Center
Fri 10:30:13 PM 38.4367 -116.7819 255° West 382 440 43,000  Level Oakland Center
Fri 10:31:14 PM 38.4078 -116.9139 254° West 387 445 43,000  Level Oakland Center
Fri 10:32:15 PM 38.3800 -117.0450 255° West 387 445 43,000  Level Oakland Center
Fri 10:33:16 PM 38.3519 -117.1711 254° West 386 444 43,000  Level Oakland Center
Fri 10:34:17 PM 38.3239 -117.3036 255° West 387 445 43,000  Level Oakland Center
Fri 10:35:19 PM 38.3089 -117.4397 262° West 389 448 43,000  Level Oakland Center
Fri 10:36:20 PM 38.2889 -117.5989 261° West 384 442 43,000  Level Oakland Center
Fri 10:37:21 PM 38.2725 -117.7322 261° West 383 441 43,000  Level Oakland Center
Fri 10:38:22 PM 38.2550 -117.8642 260° West 381 438 43,000  Level Oakland Center
Fri 10:39:23 PM 38.2386 -117.9981 261° West 382 440 43,000  Level Oakland Center
Fri 10:40:24 PM 38.2211 -118.1339 261° West 379 436 43,000  Level Oakland Center
Fri 10:41:25 PM 38.2031 -118.2675 260° West 381 438 43,000  Level Oakland Center
Fri 10:42:26 PM 38.1856 -118.4019 261° West 385 443 43,000  Level Oakland Center
Fri 10:47:58 PM 38.0860 -119.1470 261° West 388 447 43,000  Level FlightAware ADS-B
Fri 10:48:43 PM 38.0700 -119.2570 260° West 388 447 43,000 -300 Level FlightAware ADS-B
Fri 10:49:18 PM 38.0600 -119.3320 260° West 385 443 42,600 -1,482 Descending FlightAware ADS-B
Fri 10:50:08 PM 38.0460 -119.4360 260° West 345 397 40,900 -1,800 Descending FlightAware ADS-B
Fri 10:50:48 PM 38.0340 -119.5180 259° West 362 417 39,900 -1,624 Descending FlightAware ADS-B
Fri 10:51:33 PM 38.0210 -119.6110 260° West 328 377 38,600 -1,694 Descending FlightAware ADS-B
Fri 10:52:13 PM 38.0100 -119.6870 260° West 342 394 37,500 -1,725 Descending FlightAware ADS-B
Fri 10:52:53 PM 37.9980 -119.7670 259° West 342 394 36,300 -1,694 Descending FlightAware ADS-B
Fri 10:53:38 PM 37.9860 -119.8530 260° West 349 402 35,100 -1,624 Descending FlightAware ADS-B
Fri 10:54:18 PM 37.9740 -119.9370 260° West 362 417 34,000 -1,694 Descending FlightAware ADS-B
Fri 10:55:03 PM 37.9600 -120.0320 259° West 366 421 32,700 -1,765 Descending FlightAware ADS-B
Fri 10:55:43 PM 37.9480 -120.1160 260° West 370 426 31,500 -1,725 Descending FlightAware ADS-B
Fri 10:56:23 PM 37.9350 -120.2020 259° West 376 433 30,400 -1,624 Descending FlightAware ADS-B
Fri 10:57:08 PM 37.9210 -120.2980 260° West 381 438 29,200 -1,694 Descending FlightAware ADS-B
Fri 10:57:48 PM 37.9070 -120.3870 259° West 387 445 28,000 -1,725 Descending FlightAware ADS-B
Fri 10:58:28 PM 37.8930 -120.4790 259° West 379 436 26,900 -1,694 Descending FlightAware ADS-B
Fri 10:59:13 PM 37.8790 -120.5740 259° West 370 426 25,600 -1,694 Descending FlightAware ADS-B
Fri 10:59:53 PM 37.8670 -120.6580 260° West 369 425 24,500 -2,229 Descending FlightAware ADS-B
Fri 11:00:23 PM 37.8620 -120.7220 264° West 362 417 23,000 -3,257 Descending FlightAware ADS-B
Fri 11:01:03 PM 37.8570 -120.8030 266° West 358 412 20,700 -3,459 Descending FlightAware ADS-B
Fri 11:01:48 PM 37.8510 -120.8980 265° West 351 404 18,100 -3,035 Descending FlightAware ADS-B
Fri 11:02:28 PM 37.8460 -120.9770 265° West 340 391 16,400 -2,175 Descending FlightAware ADS-B
Fri 11:03:08 PM 37.8410 -121.0540 265° West 351 404 15,200 -1,906 Descending FlightAware ADS-B
Fri 11:03:53 PM 37.8340 -121.1530 265° West 346 398 13,700 -1,906 Descending FlightAware ADS-B
Fri 11:04:33 PM 37.8140 -121.2250 251° West 339 390 12,500 -1,280 Descending FlightAware ADS-B
Fri 11:05:08 PM 37.7930 -121.2860 246° West 336 387 12,100 -1,694 Descending FlightAware ADS-B
Fri 11:05:58 PM 37.7620 -121.3720 246° West 305 351 10,100 -2,080 Descending FlightAware ADS-B
Fri 11:06:23 PM 37.7490 -121.4080 245° Southwest 310 357 9,500 -1,527 Descending FlightAware ADS-B
Fri 11:06:53 PM 37.7300 -121.4640 247° West 303 349 8,700 -1,527 Descending FlightAware ADS-B
Fri 11:07:18 PM 37.7160 -121.5010 244° Southwest 296 341 8,100 -1,543 Descending FlightAware ADS-B
Fri 11:08:03 PM 37.6990 -121.5750 254° West 280 322 6,900 -1,520 Descending FlightAware ADS-B
Fri 11:08:33 PM 37.6940 -121.6230 263° West 276 318 6,200 -1,418 Descending FlightAware ADS-B
Fri 11:08:58 PM 37.6900 -121.6600 262° West 265 305 5,600 -1,467 Descending FlightAware ADS-B
Fri 11:09:18 PM 37.6870 -121.6890 263° West 258 297 5,100 -1,015 Descending FlightAware ADS-B
Fri 11:10:03 PM 37.6800 -121.7550 262° West 255 293 4,500 -857 Descending FlightAware ADS-B
Fri 11:10:28 PM 37.6780 -121.7880 266° West 221 254 4,100 -400 Descending FlightAware ADS-B
Fri 11:11:03 PM 37.6730 -121.8340 262° West 226 260 4,100  Level FlightAware ADS-B
Fri 11:11:28 PM 37.6700 -121.8600 262° West 199 229 4,100  Level FlightAware ADS-B
Fri 11:12:03 PM 37.6660 -121.9070 264° West 216 249 4,100  Level FlightAware ADS-B
Fri 11:12:28 PM 37.6620 -121.9380 261° West 219 252 4,100 -327 Level FlightAware ADS-B
Fri 11:12:58 PM 37.6590 -121.9760 264° West 203 234 3,800 -764 Descending FlightAware ADS-B
Fri 11:13:23 PM 37.6610 -122.0040 275° West 206 237 3,400 -982 Descending FlightAware ADS-B
Fri 11:13:53 PM 37.6710 -122.0390 290° West 204 235 2,900 -900 Descending FlightAware ADS-B
Fri 11:14:23 PM 37.6800 -122.0690 291° West 182 209 2,500 -873 Descending FlightAware ADS-B
Fri 11:14:48 PM 37.6880 -122.0940 292° West 169 194 2,100 -764 Descending FlightAware ADS-B
Fri 11:15:18 PM 37.6960 -122.1170 294° West 141 162 1,800 -436 Descending FlightAware ADS-B
Fri 11:15:43 PM 37.7010 -122.1330 292° West 129 148 1,700 -825 Descending FlightAware ADS-B
Fri 11:16:38 PM 37.6960 -122.1160 110° East 122 140 700 -750 Descending FlightAware ADS-B
Fri 11:17:03 PM 37.7010 -122.1300 294° West 122 140 700 -667 Level FlightAware ADS-B
Fri 11:17:32 PM 37.7167 -122.2000 294° West 108 124 100 28,355 Descending Northern Cal TRACON
Fri 11:18:05 PM 37.7272 -122.2167 309° West 117 135 30,000 54,364 Climbing Oakland Center

Login

Don't have an account? Register now (free) for customized features, flight alerts, and more!